createdAt,value
2022-07-31T00:00:08.156Z,10.40
2022-07-31T00:02:55.819Z,9.68
2022-07-31T00:05:42.936Z,10.30
2022-07-31T00:08:30.115Z,10.20
2022-07-31T00:11:17.393Z,11.52
2022-07-31T00:14:04.420Z,10.57
2022-07-31T00:16:51.330Z,10.88
2022-07-31T00:19:38.568Z,11.93
2022-07-31T00:22:25.560Z,10.30
2022-07-31T00:25:14.380Z,11.45
2022-07-31T00:28:01.559Z,11.88
2022-07-31T00:30:48.597Z,10.90
2022-07-31T00:33:35.562Z,10.32
2022-07-31T00:36:30.022Z,12.05
2022-07-31T00:39:17.361Z,13.07
2022-07-31T00:42:05.725Z,11.05
2022-07-31T00:44:52.956Z,11.07
2022-07-31T00:47:39.894Z,10.52
2022-07-31T00:50:26.819Z,11.07
2022-07-31T00:53:13.803Z,11.95
2022-07-31T00:56:00.766Z,11.13
2022-07-31T00:58:47.877Z,11.65
2022-07-31T01:01:34.849Z,12.02
2022-07-31T01:04:22.008Z,12.75
2022-07-31T01:07:09.766Z,11.73
2022-07-31T01:09:57.535Z,13.05
2022-07-31T01:12:59.525Z,12.05
2022-07-31T01:15:47.756Z,12.15
2022-07-31T01:18:38.971Z,11.73
2022-07-31T01:21:33.596Z,12.63
2022-07-31T01:24:39.118Z,13.00
2022-07-31T01:27:31.346Z,11.60
2022-07-31T01:30:19.916Z,11.32
2022-07-31T01:33:14.227Z,11.30
2022-07-31T01:36:13.117Z,14.25
2022-07-31T01:39:00.397Z,11.45
2022-07-31T01:41:48.131Z,11.23
2022-07-31T01:44:41.942Z,10.48
2022-07-31T01:47:31.491Z,10.73
2022-07-31T01:50:42.343Z,11.63
2022-07-31T01:53:27.973Z,11.85
2022-07-31T01:56:17.696Z,13.10
2022-07-31T01:59:05.599Z,12.27
2022-07-31T02:02:09.780Z,13.15
2022-07-31T02:04:58.090Z,13.48
2022-07-31T02:07:46.035Z,10.82
2022-07-31T02:10:33.764Z,11.55
2022-07-31T02:13:22.500Z,13.05
2022-07-31T02:16:09.513Z,11.75
2022-07-31T02:18:58.482Z,12.18
2022-07-31T02:21:45.542Z,11.70
2022-07-31T02:24:33.452Z,13.00
2022-07-31T02:27:55.410Z,12.68
2022-07-31T02:30:39.335Z,12.02
2022-07-31T02:33:27.903Z,13.32
2022-07-31T02:36:17.843Z,13.02
2022-07-31T02:39:05.864Z,13.60
2022-07-31T02:41:53.671Z,11.93
2022-07-31T02:44:40.817Z,13.45
2022-07-31T02:47:29.204Z,14.10
2022-07-31T02:50:18.931Z,12.98
2022-07-31T02:53:07.676Z,12.50
2022-07-31T02:55:56.053Z,14.20
2022-07-31T02:58:43.086Z,14.98
2022-07-31T03:01:34.938Z,13.50
2022-07-31T03:04:22.116Z,11.88
2022-07-31T03:07:09.149Z,14.10
2022-07-31T03:09:57.580Z,14.15
2022-07-31T03:12:47.651Z,14.95
2022-07-31T03:15:36.196Z,15.15
2022-07-31T03:18:25.049Z,14.10
2022-07-31T03:21:12.395Z,14.05
2022-07-31T03:23:59.886Z,14.70
2022-07-31T03:26:47.382Z,15.00
2022-07-31T03:29:43.288Z,13.55
2022-07-31T03:32:30.840Z,13.38
2022-07-31T03:35:18.154Z,14.30
2022-07-31T03:38:38.352Z,14.20
2022-07-31T03:41:13.007Z,13.27
2022-07-31T03:44:00.093Z,13.98
2022-07-31T03:46:47.237Z,13.73
2022-07-31T03:49:34.522Z,16.10
2022-07-31T03:52:21.883Z,13.43
2022-07-31T03:55:09.298Z,13.95
2022-07-31T03:57:57.252Z,15.13
2022-07-31T04:00:44.762Z,14.57
2022-07-31T04:03:32.225Z,14.13
2022-07-31T04:06:19.177Z,14.75
2022-07-31T04:09:15.592Z,14.80
2022-07-31T04:12:07.229Z,14.10
2022-07-31T04:14:54.512Z,15.65
2022-07-31T04:17:41.472Z,17.02
2022-07-31T04:20:28.541Z,17.40
2022-07-31T04:23:16.626Z,18.08
2022-07-31T04:26:03.669Z,19.90
2022-07-31T04:28:50.598Z,19.73
2022-07-31T04:31:37.542Z,18.80
2022-07-31T04:34:24.540Z,19.67
2022-07-31T04:37:11.435Z,19.80
2022-07-31T04:39:58.503Z,16.42
2022-07-31T04:42:45.447Z,16.73
2022-07-31T04:45:32.498Z,16.10
2022-07-31T04:48:19.412Z,19.75
2022-07-31T04:51:06.789Z,18.00
2022-07-31T04:53:53.840Z,20.75
2022-07-31T04:56:43.557Z,20.40
2022-07-31T04:59:58.533Z,18.50
2022-07-31T05:02:37.881Z,19.85
2022-07-31T05:05:25.012Z,16.98
2022-07-31T05:08:11.976Z,18.33
2022-07-31T05:11:17.616Z,17.65
2022-07-31T05:14:06.292Z,18.75
2022-07-31T05:16:53.665Z,19.27
2022-07-31T05:19:40.626Z,18.60
2022-07-31T05:22:27.537Z,18.70
2022-07-31T05:25:14.450Z,17.95
2022-07-31T05:28:01.373Z,17.23
2022-07-31T05:30:48.699Z,18.33
2022-07-31T05:33:36.216Z,19.30
2022-07-31T05:36:23.194Z,18.02
2022-07-31T05:39:10.270Z,16.08
2022-07-31T05:41:57.399Z,14.25
2022-07-31T05:44:44.374Z,14.18
2022-07-31T05:47:40.188Z,13.30
2022-07-31T05:50:28.044Z,13.02
2022-07-31T05:53:15.801Z,14.10
2022-07-31T05:56:02.766Z,13.15
2022-07-31T05:58:49.705Z,13.60
2022-07-31T06:01:37.285Z,14.02
2022-07-31T06:04:24.398Z,14.25
2022-07-31T06:07:11.319Z,13.13
2022-07-31T06:09:59.075Z,11.15
2022-07-31T06:12:46.278Z,12.00
2022-07-31T06:15:36.478Z,11.18
2022-07-31T06:18:23.959Z,11.15
2022-07-31T06:23:58.192Z,10.90
2022-07-31T06:26:45.168Z,10.13
2022-07-31T06:29:41.834Z,8.68
2022-07-31T06:32:29.240Z,8.13
2022-07-31T06:35:16.283Z,7.93
2022-07-31T06:38:03.254Z,8.63
2022-07-31T06:40:51.473Z,7.72
2022-07-31T06:43:38.431Z,7.95
2022-07-31T06:46:25.359Z,7.03
2022-07-31T06:49:12.704Z,8.02
2022-07-31T06:51:59.647Z,8.15
2022-07-31T06:54:51.865Z,8.23
2022-07-31T06:57:39.034Z,6.80
2022-07-31T07:00:26.073Z,6.35
2022-07-31T07:03:12.990Z,6.22
2022-07-31T07:05:59.912Z,7.18
2022-07-31T07:08:46.950Z,6.88
2022-07-31T07:11:34.111Z,6.43
2022-07-31T07:14:21.054Z,6.05
2022-07-31T07:17:07.954Z,6.10
2022-07-31T07:19:55.833Z,6.25
2022-07-31T07:22:42.820Z,5.43
2022-07-31T07:25:29.882Z,6.28
2022-07-31T07:28:31.083Z,4.90
2022-07-31T07:31:18.359Z,4.97
2022-07-31T07:34:06.254Z,5.80
2022-07-31T07:36:53.804Z,5.45
2022-07-31T07:39:40.757Z,5.57
2022-07-31T07:42:27.677Z,4.53
2022-07-31T07:45:15.440Z,4.47
2022-07-31T07:48:06.794Z,5.07
2022-07-31T07:50:54.449Z,4.90
2022-07-31T07:53:41.444Z,5.30
2022-07-31T07:56:28.521Z,5.20
2022-07-31T07:59:15.465Z,4.20
2022-07-31T08:02:02.761Z,4.38
2022-07-31T08:04:49.978Z,4.45
2022-07-31T08:07:42.690Z,4.30
2022-07-31T08:10:30.206Z,4.22
2022-07-31T08:13:17.149Z,4.50
2022-07-31T08:16:04.366Z,4.07
2022-07-31T08:18:51.748Z,3.88
2022-07-31T08:21:39.254Z,4.25
2022-07-31T08:24:26.203Z,4.50
2022-07-31T08:27:39.717Z,4.70
2022-07-31T08:30:30.820Z,4.00
2022-07-31T08:33:18.189Z,3.85
2022-07-31T08:36:08.891Z,4.20
2022-07-31T08:38:55.824Z,3.80
2022-07-31T08:41:42.807Z,3.88
2022-07-31T08:44:30.984Z,4.35
2022-07-31T08:47:18.476Z,4.30
2022-07-31T08:50:06.368Z,4.10
2022-07-31T08:52:56.685Z,4.43
2022-07-31T08:55:56.699Z,4.30
2022-07-31T08:58:44.685Z,4.45
2022-07-31T09:01:35.043Z,4.55
2022-07-31T09:04:22.085Z,3.83
2022-07-31T09:07:14.606Z,3.92
2022-07-31T09:10:02.956Z,3.75
2022-07-31T09:12:50.175Z,3.35
2022-07-31T09:15:37.625Z,2.90
2022-07-31T09:18:25.217Z,3.28
2022-07-31T09:21:12.146Z,3.75
2022-07-31T09:24:00.166Z,3.65
2022-07-31T09:26:47.097Z,3.85
2022-07-31T09:29:46.761Z,3.45
2022-07-31T09:32:33.727Z,3.30
2022-07-31T09:35:20.753Z,2.90
2022-07-31T09:38:07.762Z,3.22
2022-07-31T09:40:56.943Z,3.30
2022-07-31T09:44:02.588Z,3.33
2022-07-31T09:46:57.632Z,3.17
2022-07-31T09:49:51.928Z,2.83
2022-07-31T09:52:38.950Z,3.05
2022-07-31T09:55:26.062Z,3.33
2022-07-31T09:58:12.986Z,2.70
2022-07-31T10:01:02.053Z,2.65
2022-07-31T10:03:51.191Z,2.35
2022-07-31T10:06:39.157Z,2.85
2022-07-31T10:09:28.754Z,2.50
2022-07-31T10:12:19.477Z,2.70
2022-07-31T10:15:09.323Z,2.90
2022-07-31T10:17:57.016Z,2.60
2022-07-31T10:20:52.538Z,2.40
2022-07-31T10:23:41.602Z,2.75
2022-07-31T10:26:50.609Z,2.83
2022-07-31T10:29:39.066Z,2.97
2022-07-31T10:32:26.553Z,2.53
2022-07-31T10:35:14.697Z,3.08
2022-07-31T10:38:11.386Z,3.13
2022-07-31T10:41:09.723Z,3.08
2022-07-31T10:44:00.805Z,3.08
2022-07-31T10:46:47.959Z,2.80
2022-07-31T10:49:40.270Z,3.00
2022-07-31T10:52:29.267Z,2.88
2022-07-31T10:55:22.426Z,3.35
2022-07-31T10:58:21.005Z,3.67
2022-07-31T11:01:09.323Z,3.00
2022-07-31T11:04:01.919Z,3.40
2022-07-31T11:06:50.400Z,3.25
2022-07-31T11:09:51.096Z,2.70
2022-07-31T11:12:38.971Z,2.85
2022-07-31T11:15:26.000Z,3.38
2022-07-31T11:18:24.912Z,2.63
2022-07-31T11:21:37.124Z,3.10
2022-07-31T11:24:23.291Z,2.78
2022-07-31T11:27:10.234Z,2.72
2022-07-31T11:30:12.998Z,2.70
2022-07-31T11:33:00.555Z,2.88
2022-07-31T11:35:47.563Z,2.83
2022-07-31T11:38:35.071Z,2.63
2022-07-31T11:41:27.743Z,2.40
2022-07-31T11:44:22.756Z,2.60
2022-07-31T11:48:09.676Z,2.58
2022-07-31T11:50:17.317Z,2.88
2022-07-31T11:53:06.767Z,2.35
2022-07-31T11:55:56.465Z,3.00
2022-07-31T11:58:54.622Z,2.75
2022-07-31T12:01:41.851Z,2.50
2022-07-31T12:04:30.344Z,2.50
2022-07-31T12:07:17.403Z,2.60
2022-07-31T12:10:04.946Z,2.78
2022-07-31T12:12:51.956Z,2.60
2022-07-31T12:15:39.130Z,2.70
2022-07-31T12:18:28.022Z,2.50
2022-07-31T12:21:15.944Z,2.75
2022-07-31T12:24:10.382Z,2.55
2022-07-31T12:27:00.922Z,2.63
2022-07-31T12:29:47.872Z,3.00
2022-07-31T12:32:34.826Z,2.50
2022-07-31T12:35:21.764Z,2.95
2022-07-31T12:38:36.877Z,2.50
2022-07-31T12:41:16.597Z,2.88
2022-07-31T12:44:14.675Z,2.75
2022-07-31T12:47:01.967Z,2.75
2022-07-31T12:49:49.704Z,2.80
2022-07-31T12:52:37.859Z,2.92
2022-07-31T12:55:24.895Z,2.80
2022-07-31T12:58:11.841Z,2.78
2022-07-31T13:00:58.757Z,2.92
2022-07-31T13:03:47.150Z,2.70
2022-07-31T13:06:34.104Z,2.97
2022-07-31T13:09:21.178Z,3.17
2022-07-31T13:12:09.569Z,2.80
2022-07-31T13:14:56.531Z,2.88
2022-07-31T13:17:48.103Z,3.30
2022-07-31T13:20:37.818Z,3.30
2022-07-31T13:23:24.757Z,3.17
2022-07-31T13:26:11.849Z,3.00
2022-07-31T13:28:58.942Z,2.90
2022-07-31T13:31:45.888Z,2.78
2022-07-31T13:34:32.817Z,3.10
2022-07-31T13:37:19.828Z,3.00
2022-07-31T13:40:07.631Z,3.13
2022-07-31T13:42:57.463Z,2.97
2022-07-31T13:45:44.503Z,2.92
2022-07-31T13:48:33.247Z,3.00
2022-07-31T13:51:24.030Z,2.60
2022-07-31T13:54:16.484Z,2.97
2022-07-31T13:57:05.850Z,2.78
2022-07-31T13:59:52.750Z,2.78
2022-07-31T14:02:39.772Z,3.25
2022-07-31T14:05:27.582Z,2.88
2022-07-31T14:08:33.515Z,3.03
2022-07-31T14:11:22.024Z,2.78
2022-07-31T14:14:09.342Z,2.80
2022-07-31T14:16:56.332Z,2.75
2022-07-31T14:19:44.721Z,2.90
2022-07-31T14:22:32.545Z,3.00
2022-07-31T14:25:19.513Z,2.67
2022-07-31T14:28:07.757Z,2.53
2022-07-31T14:30:54.830Z,2.75
2022-07-31T14:33:41.767Z,2.88
2022-07-31T14:36:28.717Z,2.63
2022-07-31T14:39:15.776Z,2.58
2022-07-31T14:42:03.061Z,2.80
2022-07-31T14:44:50.218Z,2.80
2022-07-31T14:47:37.850Z,2.63
2022-07-31T14:50:24.964Z,2.88
2022-07-31T14:53:12.347Z,2.58
2022-07-31T14:56:04.020Z,2.83
2022-07-31T14:58:57.607Z,2.85
2022-07-31T15:01:45.104Z,2.80
2022-07-31T15:04:32.445Z,2.50
2022-07-31T15:07:38.523Z,2.50
2022-07-31T15:10:27.465Z,2.92
2022-07-31T15:13:14.409Z,3.30
2022-07-31T15:16:01.399Z,2.60
2022-07-31T15:18:51.557Z,2.80
2022-07-31T15:21:39.071Z,2.75
2022-07-31T15:24:26.024Z,3.10
2022-07-31T15:27:13.002Z,2.60
2022-07-31T15:30:07.144Z,2.80
2022-07-31T15:32:54.847Z,2.85
2022-07-31T15:35:41.794Z,2.60
2022-07-31T15:38:28.725Z,2.63
2022-07-31T15:41:18.781Z,3.10
2022-07-31T15:44:06.182Z,2.70
2022-07-31T15:46:53.169Z,3.20
2022-07-31T15:49:44.145Z,2.90
2022-07-31T15:52:31.837Z,2.88
2022-07-31T15:55:18.849Z,3.13
2022-07-31T15:58:05.840Z,3.38
2022-07-31T16:00:52.862Z,4.03
2022-07-31T16:03:52.881Z,3.10
2022-07-31T16:06:40.531Z,3.60
2022-07-31T16:09:27.737Z,3.60
2022-07-31T16:12:14.691Z,3.60
2022-07-31T16:15:02.473Z,3.67
2022-07-31T16:17:49.920Z,4.00
2022-07-31T16:20:36.939Z,4.82
2022-07-31T16:23:25.704Z,4.55
2022-07-31T16:26:13.447Z,4.95
2022-07-31T16:29:00.547Z,4.30
2022-07-31T16:31:47.615Z,4.88
2022-07-31T16:34:34.532Z,5.38
2022-07-31T16:37:21.487Z,4.95
2022-07-31T16:40:31.861Z,5.80
2022-07-31T16:43:50.289Z,5.70
2022-07-31T16:46:27.417Z,5.63
2022-07-31T16:49:35.756Z,6.22
2022-07-31T16:52:21.645Z,5.60
2022-07-31T16:55:08.767Z,6.13
2022-07-31T16:57:55.861Z,5.90
2022-07-31T17:00:43.027Z,6.18
2022-07-31T17:03:59.038Z,6.90
2022-07-31T17:06:38.123Z,6.45
2022-07-31T17:09:25.377Z,6.65
2022-07-31T17:12:12.404Z,7.00
2022-07-31T17:14:59.555Z,7.05
2022-07-31T17:17:46.515Z,6.55
2022-07-31T17:20:33.577Z,6.15
2022-07-31T17:23:43.424Z,6.65
2022-07-31T17:26:27.538Z,6.80
2022-07-31T17:29:16.216Z,6.68
2022-07-31T17:32:04.291Z,6.95
2022-07-31T17:34:51.315Z,7.55
2022-07-31T17:37:39.420Z,7.68
2022-07-31T17:40:42.575Z,6.88
2022-07-31T17:43:31.257Z,7.90
2022-07-31T17:46:43.932Z,8.63
2022-07-31T17:49:35.690Z,7.63
2022-07-31T17:52:23.031Z,8.27
2022-07-31T17:55:10.912Z,6.85
2022-07-31T17:57:57.898Z,7.68
2022-07-31T18:00:44.848Z,8.07
2022-07-31T18:03:31.843Z,7.60
2022-07-31T18:06:18.768Z,7.80
2022-07-31T18:09:05.843Z,8.00
2022-07-31T18:11:53.639Z,7.40
2022-07-31T18:14:40.833Z,7.32
2022-07-31T18:17:30.743Z,7.85
2022-07-31T18:20:19.484Z,8.20
2022-07-31T18:23:06.413Z,8.65
2022-07-31T18:25:58.916Z,9.30
2022-07-31T18:28:45.903Z,8.40
2022-07-31T18:31:35.194Z,8.57
2022-07-31T18:34:22.696Z,8.55
2022-07-31T18:37:09.658Z,8.23
2022-07-31T18:39:59.898Z,7.80
2022-07-31T18:42:46.816Z,8.52
2022-07-31T18:45:33.839Z,8.38
2022-07-31T18:48:21.082Z,8.32
2022-07-31T18:51:08.316Z,7.65
2022-07-31T18:53:55.761Z,8.43
2022-07-31T18:56:42.695Z,8.93
2022-07-31T18:59:29.972Z,9.20
2022-07-31T19:02:17.029Z,10.15
2022-07-31T19:05:08.980Z,10.50
2022-07-31T19:08:03.790Z,9.23
2022-07-31T19:10:53.278Z,10.30
2022-07-31T19:13:40.229Z,9.23
2022-07-31T19:16:28.462Z,10.77
2022-07-31T19:19:16.294Z,11.57
2022-07-31T19:22:04.423Z,11.82
2022-07-31T19:24:52.454Z,12.10
2022-07-31T19:27:48.502Z,12.00
2022-07-31T19:30:42.794Z,11.93
2022-07-31T19:33:32.678Z,13.00
2022-07-31T19:36:19.644Z,12.95
2022-07-31T19:39:06.627Z,13.82
2022-07-31T19:42:11.023Z,13.65
2022-07-31T19:44:59.022Z,12.77
2022-07-31T19:47:46.041Z,12.68
2022-07-31T19:50:32.955Z,13.25
2022-07-31T19:53:19.908Z,11.88
2022-07-31T19:56:07.224Z,11.88
2022-07-31T19:58:54.230Z,11.30
2022-07-31T20:01:41.185Z,10.32
2022-07-31T20:04:28.329Z,9.25
2022-07-31T20:07:15.378Z,7.50
2022-07-31T20:10:02.333Z,6.47
2022-07-31T20:12:49.273Z,7.35
2022-07-31T20:15:50.862Z,6.93
2022-07-31T20:18:39.630Z,6.35
2022-07-31T20:21:26.829Z,6.55
2022-07-31T20:24:21.942Z,6.97
2022-07-31T20:27:08.906Z,7.30
2022-07-31T20:29:56.060Z,6.50
2022-07-31T20:32:48.628Z,6.65
2022-07-31T20:35:49.018Z,6.35
2022-07-31T20:38:37.113Z,6.32
2022-07-31T20:41:24.809Z,6.15
2022-07-31T20:44:11.747Z,6.75
2022-07-31T20:46:58.767Z,6.28
2022-07-31T20:49:45.729Z,6.47
2022-07-31T20:52:33.245Z,6.10
2022-07-31T20:55:20.231Z,6.20
2022-07-31T20:58:07.305Z,6.10
2022-07-31T21:00:54.499Z,6.15
2022-07-31T21:03:41.813Z,5.78
2022-07-31T21:06:29.172Z,5.57
2022-07-31T21:09:16.119Z,5.90
2022-07-31T21:12:03.600Z,6.50
2022-07-31T21:14:50.771Z,6.45
2022-07-31T21:17:37.772Z,6.07
2022-07-31T21:20:37.932Z,5.43
2022-07-31T21:23:32.178Z,6.25
2022-07-31T21:26:20.581Z,6.25
2022-07-31T21:29:09.059Z,6.63
2022-07-31T21:31:57.417Z,6.15
2022-07-31T21:34:44.685Z,6.63
2022-07-31T21:37:39.015Z,6.28
2022-07-31T21:40:27.490Z,6.82
2022-07-31T21:43:22.334Z,5.90
2022-07-31T21:46:15.300Z,6.30
2022-07-31T21:49:04.929Z,5.63
2022-07-31T21:51:52.141Z,6.13
2022-07-31T21:54:39.739Z,5.85
2022-07-31T21:57:26.709Z,6.50
2022-07-31T22:00:14.297Z,6.68
2022-07-31T22:03:02.927Z,6.00
2022-07-31T22:06:08.743Z,5.70
2022-07-31T22:08:55.667Z,7.07
2022-07-31T22:11:42.582Z,6.22
2022-07-31T22:14:46.077Z,6.78
2022-07-31T22:17:33.391Z,6.38
2022-07-31T22:20:21.552Z,6.78
2022-07-31T22:23:08.602Z,6.75
2022-07-31T22:25:56.261Z,6.95
2022-07-31T22:28:43.984Z,6.63
2022-07-31T22:31:31.040Z,6.63
2022-07-31T22:34:37.234Z,6.65
2022-07-31T22:37:28.160Z,7.00
2022-07-31T22:40:16.894Z,6.20
2022-07-31T22:43:04.864Z,6.75
2022-07-31T22:46:13.237Z,7.70
2022-07-31T22:49:02.300Z,7.13
2022-07-31T22:51:49.323Z,7.60
2022-07-31T22:54:36.257Z,7.15
2022-07-31T22:57:23.163Z,7.40
2022-07-31T23:00:13.275Z,7.38
2022-07-31T23:03:00.221Z,7.32
2022-07-31T23:06:02.999Z,7.40
2022-07-31T23:08:55.119Z,7.07
2022-07-31T23:11:42.368Z,7.80
2022-07-31T23:14:32.040Z,7.72
2022-07-31T23:17:23.186Z,7.63
2022-07-31T23:20:10.968Z,6.55
2022-07-31T23:22:57.949Z,6.65
2022-07-31T23:25:44.980Z,6.07
2022-07-31T23:28:31.950Z,5.93
2022-07-31T23:31:20.099Z,7.07
2022-07-31T23:34:06.993Z,6.40
2022-07-31T23:36:54.157Z,6.82
2022-07-31T23:39:41.176Z,7.50
2022-07-31T23:42:46.144Z,6.90
2022-07-31T23:45:36.106Z,7.38
2022-07-31T23:48:23.055Z,8.65
2022-07-31T23:51:16.323Z,9.30
2022-07-31T23:54:08.306Z,9.73
2022-07-31T23:56:55.240Z,10.55
2022-07-31T23:59:42.173Z,9.55
